sensor_id;sensor_type;location;lat;lon;timestamp;P1;durP1;ratioP1;P2;durP2;ratioP2
70342;SDS011;57767;42.068;24.752;2023-02-03T00:00:27;2.60;;;1.92;;
70342;SDS011;57767;42.068;24.752;2023-02-03T00:01:32;4.55;;;2.35;;
70342;SDS011;57767;42.068;24.752;2023-02-03T00:02:33;2.03;;;1.75;;
70342;SDS011;57767;42.068;24.752;2023-02-03T00:03:35;2.72;;;1.90;;
70342;SDS011;57767;42.068;24.752;2023-02-03T00:04:37;3.63;;;2.67;;
70342;SDS011;57767;42.068;24.752;2023-02-03T00:05:38;2.85;;;2.30;;
70342;SDS011;57767;42.068;24.752;2023-02-03T00:06:41;3.92;;;1.75;;
70342;SDS011;57767;42.068;24.752;2023-02-03T00:07:43;3.72;;;2.28;;
70342;SDS011;57767;42.068;24.752;2023-02-03T00:08:44;2.70;;;2.10;;
70342;SDS011;57767;42.068;24.752;2023-02-03T00:09:46;4.05;;;1.80;;
70342;SDS011;57767;42.068;24.752;2023-02-03T00:10:48;3.10;;;2.05;;
70342;SDS011;57767;42.068;24.752;2023-02-03T00:11:49;1.77;;;1.65;;
70342;SDS011;57767;42.068;24.752;2023-02-03T00:12:51;2.58;;;1.80;;
70342;SDS011;57767;42.068;24.752;2023-02-03T00:13:54;3.78;;;2.00;;
70342;SDS011;57767;42.068;24.752;2023-02-03T00:14:55;3.22;;;1.85;;
70342;SDS011;57767;42.068;24.752;2023-02-03T00:15:57;4.15;;;1.88;;
70342;SDS011;57767;42.068;24.752;2023-02-03T00:16:58;3.38;;;1.73;;
70342;SDS011;57767;42.068;24.752;2023-02-03T00:18:00;3.33;;;1.95;;
70342;SDS011;57767;42.068;24.752;2023-02-03T00:19:02;2.88;;;1.90;;
70342;SDS011;57767;42.068;24.752;2023-02-03T00:20:03;3.22;;;1.90;;
70342;SDS011;57767;42.068;24.752;2023-02-03T00:21:06;3.70;;;1.70;;
70342;SDS011;57767;42.068;24.752;2023-02-03T00:22:07;1.70;;;1.60;;
70342;SDS011;57767;42.068;24.752;2023-02-03T00:23:10;1.73;;;1.48;;
70342;SDS011;57767;42.068;24.752;2023-02-03T00:24:12;4.47;;;1.80;;
70342;SDS011;57767;42.068;24.752;2023-02-03T00:25:14;2.22;;;1.80;;
70342;SDS011;57767;42.068;24.752;2023-02-03T00:26:16;2.33;;;1.60;;
70342;SDS011;57767;42.068;24.752;2023-02-03T00:27:17;1.85;;;1.42;;
70342;SDS011;57767;42.068;24.752;2023-02-03T00:28:19;1.83;;;1.38;;
70342;SDS011;57767;42.068;24.752;2023-02-03T00:29:21;4.00;;;1.58;;
70342;SDS011;57767;42.068;24.752;2023-02-03T00:30:26;3.30;;;2.00;;
70342;SDS011;57767;42.068;24.752;2023-02-03T00:31:28;2.08;;;1.75;;
70342;SDS011;57767;42.068;24.752;2023-02-03T00:32:29;3.42;;;1.65;;
70342;SDS011;57767;42.068;24.752;2023-02-03T00:33:31;3.88;;;1.85;;
70342;SDS011;57767;42.068;24.752;2023-02-03T00:34:34;2.08;;;1.42;;
70342;SDS011;57767;42.068;24.752;2023-02-03T00:35:38;1.83;;;1.48;;
70342;SDS011;57767;42.068;24.752;2023-02-03T00:36:40;2.30;;;1.70;;
70342;SDS011;57767;42.068;24.752;2023-02-03T00:37:43;1.92;;;1.52;;
70342;SDS011;57767;42.068;24.752;2023-02-03T00:38:44;2.47;;;1.30;;
70342;SDS011;57767;42.068;24.752;2023-02-03T00:39:46;1.45;;;1.33;;
70342;SDS011;57767;42.068;24.752;2023-02-03T00:40:51;2.15;;;1.70;;
70342;SDS011;57767;42.068;24.752;2023-02-03T00:41:54;2.60;;;1.60;;
70342;SDS011;57767;42.068;24.752;2023-02-03T00:42:55;2.45;;;1.70;;
70342;SDS011;57767;42.068;24.752;2023-02-03T00:43:57;2.30;;;1.55;;
70342;SDS011;57767;42.068;24.752;2023-02-03T00:44:59;3.03;;;1.80;;
70342;SDS011;57767;42.068;24.752;2023-02-03T00:46:00;2.10;;;1.58;;
70342;SDS011;57767;42.068;24.752;2023-02-03T00:47:02;2.50;;;1.88;;
70342;SDS011;57767;42.068;24.752;2023-02-03T00:48:04;2.30;;;1.73;;
70342;SDS011;57767;42.068;24.752;2023-02-03T00:49:06;1.58;;;1.35;;
70342;SDS011;57767;42.068;24.752;2023-02-03T00:50:08;2.65;;;1.70;;
70342;SDS011;57767;42.068;24.752;2023-02-03T00:51:10;1.80;;;1.40;;
70342;SDS011;57767;42.068;24.752;2023-02-03T00:52:12;4.25;;;1.50;;
70342;SDS011;57767;42.068;24.752;2023-02-03T00:53:14;2.60;;;1.50;;
70342;SDS011;57767;42.068;24.752;2023-02-03T00:54:15;2.03;;;1.45;;
70342;SDS011;57767;42.068;24.752;2023-02-03T00:55:17;2.65;;;1.70;;
70342;SDS011;57767;42.068;24.752;2023-02-03T00:56:19;2.25;;;1.50;;
70342;SDS011;57767;42.068;24.752;2023-02-03T00:57:20;2.63;;;1.85;;
70342;SDS011;57767;42.068;24.752;2023-02-03T00:58:22;3.92;;;1.77;;
70342;SDS011;57767;42.068;24.752;2023-02-03T00:59:24;2.72;;;1.20;;
70342;SDS011;57767;42.068;24.752;2023-02-03T01:00:25;2.00;;;1.45;;
70342;SDS011;57767;42.068;24.752;2023-02-03T01:01:30;2.17;;;1.42;;
70342;SDS011;57767;42.068;24.752;2023-02-03T01:02:31;1.25;;;1.15;;
70342;SDS011;57767;42.068;24.752;2023-02-03T01:03:33;1.30;;;1.20;;
70342;SDS011;57767;42.068;24.752;2023-02-03T01:04:35;1.52;;;1.42;;
70342;SDS011;57767;42.068;24.752;2023-02-03T01:05:36;1.80;;;1.35;;
70342;SDS011;57767;42.068;24.752;2023-02-03T01:06:39;1.52;;;1.27;;
70342;SDS011;57767;42.068;24.752;2023-02-03T01:07:41;2.63;;;1.65;;
70342;SDS011;57767;42.068;24.752;2023-02-03T01:08:42;1.48;;;1.27;;
70342;SDS011;57767;42.068;24.752;2023-02-03T01:09:44;2.33;;;1.67;;
70342;SDS011;57767;42.068;24.752;2023-02-03T01:10:46;1.60;;;1.20;;
70342;SDS011;57767;42.068;24.752;2023-02-03T01:11:47;2.00;;;1.63;;
70342;SDS011;57767;42.068;24.752;2023-02-03T01:12:49;1.70;;;1.40;;
70342;SDS011;57767;42.068;24.752;2023-02-03T01:13:51;2.78;;;1.50;;
70342;SDS011;57767;42.068;24.752;2023-02-03T01:14:54;2.38;;;1.45;;
70342;SDS011;57767;42.068;24.752;2023-02-03T01:15:55;1.73;;;1.30;;
70342;SDS011;57767;42.068;24.752;2023-02-03T01:16:57;3.03;;;1.40;;
70342;SDS011;57767;42.068;24.752;2023-02-03T01:17:59;1.85;;;1.50;;
70342;SDS011;57767;42.068;24.752;2023-02-03T01:19:00;1.25;;;1.15;;
70342;SDS011;57767;42.068;24.752;2023-02-03T01:20:02;3.35;;;1.65;;
70342;SDS011;57767;42.068;24.752;2023-02-03T01:21:09;3.53;;;1.70;;
70342;SDS011;57767;42.068;24.752;2023-02-03T01:22:12;4.07;;;1.77;;
70342;SDS011;57767;42.068;24.752;2023-02-03T01:23:14;2.78;;;1.83;;
70342;SDS011;57767;42.068;24.752;2023-02-03T01:24:15;3.10;;;1.50;;
70342;SDS011;57767;42.068;24.752;2023-02-03T01:25:17;2.03;;;1.60;;
70342;SDS011;57767;42.068;24.752;2023-02-03T01:26:19;2.47;;;1.60;;
70342;SDS011;57767;42.068;24.752;2023-02-03T01:27:22;3.03;;;1.70;;
70342;SDS011;57767;42.068;24.752;2023-02-03T01:28:24;2.05;;;1.48;;
70342;SDS011;57767;42.068;24.752;2023-02-03T01:29:25;2.25;;;1.52;;
70342;SDS011;57767;42.068;24.752;2023-02-03T01:30:27;2.28;;;1.50;;
70342;SDS011;57767;42.068;24.752;2023-02-03T01:31:30;2.83;;;1.73;;
70342;SDS011;57767;42.068;24.752;2023-02-03T01:32:40;4.00;;;1.70;;
70342;SDS011;57767;42.068;24.752;2023-02-03T01:33:41;2.25;;;1.58;;
70342;SDS011;57767;42.068;24.752;2023-02-03T01:34:46;2.47;;;1.80;;
70342;SDS011;57767;42.068;24.752;2023-02-03T01:35:48;2.90;;;1.73;;
70342;SDS011;57767;42.068;24.752;2023-02-03T01:36:49;1.98;;;1.63;;
70342;SDS011;57767;42.068;24.752;2023-02-03T01:37:51;3.22;;;1.63;;
70342;SDS011;57767;42.068;24.752;2023-02-03T01:38:53;2.17;;;1.77;;
70342;SDS011;57767;42.068;24.752;2023-02-03T01:39:55;3.03;;;1.98;;
70342;SDS011;57767;42.068;24.752;2023-02-03T01:40:57;2.30;;;1.73;;
70342;SDS011;57767;42.068;24.752;2023-02-03T01:41:59;2.45;;;1.42;;
70342;SDS011;57767;42.068;24.752;2023-02-03T01:43:01;1.25;;;1.15;;
70342;SDS011;57767;42.068;24.752;2023-02-03T01:44:33;1.52;;;1.20;;
70342;SDS011;57767;42.068;24.752;2023-02-03T01:45:32;2.90;;;1.55;;
70342;SDS011;57767;42.068;24.752;2023-02-03T01:46:38;1.58;;;1.35;;
70342;SDS011;57767;42.068;24.752;2023-02-03T01:47:55;1.42;;;1.27;;
70342;SDS011;57767;42.068;24.752;2023-02-03T01:51:21;2.63;;;1.27;;
70342;SDS011;57767;42.068;24.752;2023-02-03T01:52:23;1.70;;;1.60;;
70342;SDS011;57767;42.068;24.752;2023-02-03T01:53:26;1.48;;;1.35;;
70342;SDS011;57767;42.068;24.752;2023-02-03T01:54:29;1.58;;;1.25;;
70342;SDS011;57767;42.068;24.752;2023-02-03T01:55:39;2.72;;;1.10;;
70342;SDS011;57767;42.068;24.752;2023-02-03T01:56:46;1.75;;;1.17;;
70342;SDS011;57767;42.068;24.752;2023-02-03T01:57:56;2.28;;;1.48;;
70342;SDS011;57767;42.068;24.752;2023-02-03T01:59:01;2.20;;;1.48;;
70342;SDS011;57767;42.068;24.752;2023-02-03T02:00:04;2.58;;;1.55;;
70342;SDS011;57767;42.068;24.752;2023-02-03T02:01:07;1.92;;;1.60;;
70342;SDS011;57767;42.068;24.752;2023-02-03T02:02:08;2.28;;;1.70;;
70342;SDS011;57767;42.068;24.752;2023-02-03T02:03:12;3.20;;;1.75;;
70342;SDS011;57767;42.068;24.752;2023-02-03T02:04:14;2.45;;;1.40;;
70342;SDS011;57767;42.068;24.752;2023-02-03T02:06:55;2.60;;;1.20;;
70342;SDS011;57767;42.068;24.752;2023-02-03T02:07:58;2.78;;;1.77;;
70342;SDS011;57767;42.068;24.752;2023-02-03T02:09:02;1.80;;;1.42;;
70342;SDS011;57767;42.068;24.752;2023-02-03T02:10:04;2.80;;;2.00;;
70342;SDS011;57767;42.068;24.752;2023-02-03T02:11:06;2.03;;;1.55;;
70342;SDS011;57767;42.068;24.752;2023-02-03T02:12:09;2.15;;;1.48;;
70342;SDS011;57767;42.068;24.752;2023-02-03T02:13:12;2.85;;;1.70;;
70342;SDS011;57767;42.068;24.752;2023-02-03T02:14:16;3.20;;;1.50;;
70342;SDS011;57767;42.068;24.752;2023-02-03T02:15:18;3.42;;;1.60;;
70342;SDS011;57767;42.068;24.752;2023-02-03T02:19:41;2.45;;;1.67;;
70342;SDS011;57767;42.068;24.752;2023-02-03T02:26:51;4.00;;;1.75;;
70342;SDS011;57767;42.068;24.752;2023-02-03T02:34:21;2.67;;;2.10;;
70342;SDS011;57767;42.068;24.752;2023-02-03T02:35:55;2.42;;;1.92;;
70342;SDS011;57767;42.068;24.752;2023-02-03T02:38:33;2.42;;;2.08;;
70342;SDS011;57767;42.068;24.752;2023-02-03T02:39:45;2.47;;;2.10;;
70342;SDS011;57767;42.068;24.752;2023-02-03T02:43:50;2.95;;;1.50;;
70342;SDS011;57767;42.068;24.752;2023-02-03T02:45:09;2.30;;;1.80;;
70342;SDS011;57767;42.068;24.752;2023-02-03T02:46:59;2.25;;;1.60;;
70342;SDS011;57767;42.068;24.752;2023-02-03T02:47:46;1.95;;;1.65;;
70342;SDS011;57767;42.068;24.752;2023-02-03T02:48:51;1.98;;;1.60;;
70342;SDS011;57767;42.068;24.752;2023-02-03T02:50:17;2.58;;;1.90;;
70342;SDS011;57767;42.068;24.752;2023-02-03T02:51:25;2.25;;;1.73;;
70342;SDS011;57767;42.068;24.752;2023-02-03T02:52:30;2.90;;;1.90;;
70342;SDS011;57767;42.068;24.752;2023-02-03T02:53:39;1.55;;;1.40;;
70342;SDS011;57767;42.068;24.752;2023-02-03T02:54:53;1.65;;;1.55;;
70342;SDS011;57767;42.068;24.752;2023-02-03T02:56:01;2.55;;;1.60;;
70342;SDS011;57767;42.068;24.752;2023-02-03T02:57:05;1.98;;;1.70;;
70342;SDS011;57767;42.068;24.752;2023-02-03T02:58:12;1.63;;;1.20;;
70342;SDS011;57767;42.068;24.752;2023-02-03T02:59:16;1.52;;;1.40;;
70342;SDS011;57767;42.068;24.752;2023-02-03T03:00:17;1.50;;;1.40;;
70342;SDS011;57767;42.068;24.752;2023-02-03T03:01:19;2.00;;;1.40;;
70342;SDS011;57767;42.068;24.752;2023-02-03T03:02:21;3.22;;;1.60;;
70342;SDS011;57767;42.068;24.752;2023-02-03T03:03:27;2.67;;;1.60;;
70342;SDS011;57767;42.068;24.752;2023-02-03T03:04:30;2.92;;;1.38;;
70342;SDS011;57767;42.068;24.752;2023-02-03T03:05:34;2.30;;;1.40;;
70342;SDS011;57767;42.068;24.752;2023-02-03T03:07:46;1.42;;;1.20;;
70342;SDS011;57767;42.068;24.752;2023-02-03T03:08:58;2.08;;;1.55;;
70342;SDS011;57767;42.068;24.752;2023-02-03T03:10:04;1.63;;;1.15;;
70342;SDS011;57767;42.068;24.752;2023-02-03T03:11:10;1.70;;;1.30;;
70342;SDS011;57767;42.068;24.752;2023-02-03T03:12:16;1.40;;;1.30;;
70342;SDS011;57767;42.068;24.752;2023-02-03T03:13:26;4.15;;;1.40;;
70342;SDS011;57767;42.068;24.752;2023-02-03T03:14:32;2.55;;;1.40;;
70342;SDS011;57767;42.068;24.752;2023-02-03T03:15:35;4.53;;;2.25;;
70342;SDS011;57767;42.068;24.752;2023-02-03T03:16:42;1.73;;;1.50;;
70342;SDS011;57767;42.068;24.752;2023-02-03T03:17:53;3.28;;;1.70;;
70342;SDS011;57767;42.068;24.752;2023-02-03T03:19:02;3.33;;;1.70;;
70342;SDS011;57767;42.068;24.752;2023-02-03T03:20:09;2.42;;;1.70;;
70342;SDS011;57767;42.068;24.752;2023-02-03T03:21:18;2.30;;;1.40;;
70342;SDS011;57767;42.068;24.752;2023-02-03T03:22:27;1.92;;;1.20;;
70342;SDS011;57767;42.068;24.752;2023-02-03T03:23:37;2.08;;;1.63;;
70342;SDS011;57767;42.068;24.752;2023-02-03T03:24:44;1.85;;;1.25;;
70342;SDS011;57767;42.068;24.752;2023-02-03T03:25:52;1.70;;;1.45;;
70342;SDS011;57767;42.068;24.752;2023-02-03T03:27:06;1.95;;;1.38;;
70342;SDS011;57767;42.068;24.752;2023-02-03T03:28:15;1.52;;;1.10;;
70342;SDS011;57767;42.068;24.752;2023-02-03T03:30:57;1.38;;;1.10;;
70342;SDS011;57767;42.068;24.752;2023-02-03T03:31:59;3.05;;;1.38;;
70342;SDS011;57767;42.068;24.752;2023-02-03T03:33:02;3.05;;;1.20;;
70342;SDS011;57767;42.068;24.752;2023-02-03T03:34:07;1.30;;;1.20;;
70342;SDS011;57767;42.068;24.752;2023-02-03T03:35:11;2.90;;;1.20;;
70342;SDS011;57767;42.068;24.752;2023-02-03T03:36:18;2.05;;;0.98;;
70342;SDS011;57767;42.068;24.752;2023-02-03T03:38:40;2.25;;;1.40;;
70342;SDS011;57767;42.068;24.752;2023-02-03T03:39:47;2.33;;;1.20;;
70342;SDS011;57767;42.068;24.752;2023-02-03T03:41:01;1.20;;;1.10;;
70342;SDS011;57767;42.068;24.752;2023-02-03T03:42:13;2.92;;;1.08;;
70342;SDS011;57767;42.068;24.752;2023-02-03T03:43:24;2.45;;;1.50;;
70342;SDS011;57767;42.068;24.752;2023-02-03T03:44:36;1.10;;;1.00;;
70342;SDS011;57767;42.068;24.752;2023-02-03T03:48:31;3.95;;;1.33;;
70342;SDS011;57767;42.068;24.752;2023-02-03T03:49:39;2.33;;;1.38;;
70342;SDS011;57767;42.068;24.752;2023-02-03T03:50:51;2.00;;;1.20;;
70342;SDS011;57767;42.068;24.752;2023-02-03T03:52:00;1.55;;;1.17;;
70342;SDS011;57767;42.068;24.752;2023-02-03T03:53:07;1.58;;;1.38;;
70342;SDS011;57767;42.068;24.752;2023-02-03T03:54:11;1.60;;;1.20;;
70342;SDS011;57767;42.068;24.752;2023-02-03T03:55:17;1.98;;;1.20;;
70342;SDS011;57767;42.068;24.752;2023-02-03T03:56:24;1.30;;;1.15;;
70342;SDS011;57767;42.068;24.752;2023-02-03T03:57:54;2.20;;;1.33;;
70342;SDS011;57767;42.068;24.752;2023-02-03T03:58:59;0.90;;;0.88;;
70342;SDS011;57767;42.068;24.752;2023-02-03T04:00:03;1.92;;;1.40;;
70342;SDS011;57767;42.068;24.752;2023-02-03T04:01:10;2.75;;;1.30;;
70342;SDS011;57767;42.068;24.752;2023-02-03T04:02:13;2.30;;;1.38;;
70342;SDS011;57767;42.068;24.752;2023-02-03T04:03:22;2.97;;;1.10;;
70342;SDS011;57767;42.068;24.752;2023-02-03T04:04:26;1.70;;;1.20;;
70342;SDS011;57767;42.068;24.752;2023-02-03T04:05:28;1.30;;;1.10;;
70342;SDS011;57767;42.068;24.752;2023-02-03T04:06:32;1.20;;;1.02;;
70342;SDS011;57767;42.068;24.752;2023-02-03T04:07:37;1.83;;;1.30;;
70342;SDS011;57767;42.068;24.752;2023-02-03T04:08:41;1.42;;;1.27;;
70342;SDS011;57767;42.068;24.752;2023-02-03T04:09:43;1.35;;;1.25;;
70342;SDS011;57767;42.068;24.752;2023-02-03T04:10:44;2.50;;;1.20;;
70342;SDS011;57767;42.068;24.752;2023-02-03T04:11:46;2.22;;;1.15;;
70342;SDS011;57767;42.068;24.752;2023-02-03T04:13:03;2.30;;;1.20;;
70342;SDS011;57767;42.068;24.752;2023-02-03T04:14:05;1.73;;;1.10;;
70342;SDS011;57767;42.068;24.752;2023-02-03T04:15:07;1.25;;;1.10;;
70342;SDS011;57767;42.068;24.752;2023-02-03T04:16:09;1.88;;;0.90;;
70342;SDS011;57767;42.068;24.752;2023-02-03T04:17:11;1.75;;;1.15;;
70342;SDS011;57767;42.068;24.752;2023-02-03T04:18:13;1.80;;;0.88;;
70342;SDS011;57767;42.068;24.752;2023-02-03T04:19:15;2.38;;;1.30;;
70342;SDS011;57767;42.068;24.752;2023-02-03T04:20:17;1.63;;;1.00;;
70342;SDS011;57767;42.068;24.752;2023-02-03T04:21:19;2.80;;;1.40;;
70342;SDS011;57767;42.068;24.752;2023-02-03T04:22:20;4.82;;;1.20;;
70342;SDS011;57767;42.068;24.752;2023-02-03T04:23:22;3.35;;;1.05;;
70342;SDS011;57767;42.068;24.752;2023-02-03T04:24:23;1.05;;;0.80;;
70342;SDS011;57767;42.068;24.752;2023-02-03T04:25:25;1.48;;;1.15;;
70342;SDS011;57767;42.068;24.752;2023-02-03T04:26:27;1.63;;;1.05;;
70342;SDS011;57767;42.068;24.752;2023-02-03T04:27:29;1.90;;;1.20;;
70342;SDS011;57767;42.068;24.752;2023-02-03T04:28:30;1.02;;;0.93;;
70342;SDS011;57767;42.068;24.752;2023-02-03T04:29:32;1.88;;;1.15;;
70342;SDS011;57767;42.068;24.752;2023-02-03T04:30:33;3.30;;;1.17;;
70342;SDS011;57767;42.068;24.752;2023-02-03T04:31:35;1.52;;;1.10;;
70342;SDS011;57767;42.068;24.752;2023-02-03T04:32:39;2.00;;;1.13;;
70342;SDS011;57767;42.068;24.752;2023-02-03T04:33:40;1.55;;;1.08;;
70342;SDS011;57767;42.068;24.752;2023-02-03T04:34:42;2.70;;;1.30;;
70342;SDS011;57767;42.068;24.752;2023-02-03T04:35:44;1.63;;;1.27;;
70342;SDS011;57767;42.068;24.752;2023-02-03T04:36:45;4.18;;;3.33;;
70342;SDS011;57767;42.068;24.752;2023-02-03T04:37:47;5.35;;;1.63;;
70342;SDS011;57767;42.068;24.752;2023-02-03T04:38:49;1.67;;;1.10;;
70342;SDS011;57767;42.068;24.752;2023-02-03T04:39:50;2.30;;;1.52;;
70342;SDS011;57767;42.068;24.752;2023-02-03T04:40:52;2.10;;;1.17;;
70342;SDS011;57767;42.068;24.752;2023-02-03T04:41:54;1.30;;;1.08;;
70342;SDS011;57767;42.068;24.752;2023-02-03T04:42:56;2.08;;;1.20;;
70342;SDS011;57767;42.068;24.752;2023-02-03T04:43:57;1.45;;;1.10;;
70342;SDS011;57767;42.068;24.752;2023-02-03T04:45:00;1.40;;;1.20;;
70342;SDS011;57767;42.068;24.752;2023-02-03T04:46:01;2.30;;;1.63;;
70342;SDS011;57767;42.068;24.752;2023-02-03T04:47:03;2.78;;;1.38;;
70342;SDS011;57767;42.068;24.752;2023-02-03T04:48:05;2.47;;;1.25;;
70342;SDS011;57767;42.068;24.752;2023-02-03T04:49:06;1.38;;;1.05;;
70342;SDS011;57767;42.068;24.752;2023-02-03T04:50:11;1.90;;;1.48;;
70342;SDS011;57767;42.068;24.752;2023-02-03T04:51:13;2.67;;;1.45;;
70342;SDS011;57767;42.068;24.752;2023-02-03T04:52:15;1.30;;;1.20;;
70342;SDS011;57767;42.068;24.752;2023-02-03T04:53:16;1.92;;;1.50;;
70342;SDS011;57767;42.068;24.752;2023-02-03T04:54:18;3.33;;;1.10;;
70342;SDS011;57767;42.068;24.752;2023-02-03T04:55:19;1.85;;;1.50;;
70342;SDS011;57767;42.068;24.752;2023-02-03T04:56:21;2.10;;;1.10;;
70342;SDS011;57767;42.068;24.752;2023-02-03T04:57:23;3.60;;;2.53;;
70342;SDS011;57767;42.068;24.752;2023-02-03T04:58:25;2.97;;;2.03;;
70342;SDS011;57767;42.068;24.752;2023-02-03T04:59:27;3.10;;;1.52;;
70342;SDS011;57767;42.068;24.752;2023-02-03T05:00:28;3.05;;;1.63;;
70342;SDS011;57767;42.068;24.752;2023-02-03T05:01:30;3.38;;;1.90;;
70342;SDS011;57767;42.068;24.752;2023-02-03T05:02:32;3.30;;;1.50;;
70342;SDS011;57767;42.068;24.752;2023-02-03T05:03:34;3.55;;;1.58;;
70342;SDS011;57767;42.068;24.752;2023-02-03T05:04:36;2.45;;;1.42;;
70342;SDS011;57767;42.068;24.752;2023-02-03T05:05:39;2.15;;;1.70;;
70342;SDS011;57767;42.068;24.752;2023-02-03T05:06:40;1.85;;;1.60;;
70342;SDS011;57767;42.068;24.752;2023-02-03T05:07:42;2.55;;;1.50;;
70342;SDS011;57767;42.068;24.752;2023-02-03T05:08:43;2.72;;;1.45;;
70342;SDS011;57767;42.068;24.752;2023-02-03T05:09:45;2.90;;;1.73;;
70342;SDS011;57767;42.068;24.752;2023-02-03T05:10:47;5.55;;;1.10;;
70342;SDS011;57767;42.068;24.752;2023-02-03T05:11:48;2.78;;;1.63;;
70342;SDS011;57767;42.068;24.752;2023-02-03T05:12:50;3.33;;;1.58;;
70342;SDS011;57767;42.068;24.752;2023-02-03T05:13:52;2.38;;;1.55;;
70342;SDS011;57767;42.068;24.752;2023-02-03T05:14:54;2.33;;;1.60;;
70342;SDS011;57767;42.068;24.752;2023-02-03T05:15:56;2.55;;;1.80;;
70342;SDS011;57767;42.068;24.752;2023-02-03T05:16:57;5.68;;;1.83;;
70342;SDS011;57767;42.068;24.752;2023-02-03T05:17:59;2.20;;;1.50;;
70342;SDS011;57767;42.068;24.752;2023-02-03T05:19:00;2.25;;;1.58;;
70342;SDS011;57767;42.068;24.752;2023-02-03T05:20:02;1.67;;;1.55;;
70342;SDS011;57767;42.068;24.752;2023-02-03T05:21:05;4.25;;;1.50;;
70342;SDS011;57767;42.068;24.752;2023-02-03T05:22:07;3.90;;;1.50;;
70342;SDS011;57767;42.068;24.752;2023-02-03T05:23:08;3.53;;;1.90;;
70342;SDS011;57767;42.068;24.752;2023-02-03T05:24:10;5.82;;;4.13;;
70342;SDS011;57767;42.068;24.752;2023-02-03T05:25:12;7.43;;;4.22;;
70342;SDS011;57767;42.068;24.752;2023-02-03T05:26:14;5.88;;;3.35;;
70342;SDS011;57767;42.068;24.752;2023-02-03T05:27:16;10.55;;;3.58;;
70342;SDS011;57767;42.068;24.752;2023-02-03T05:28:18;7.65;;;3.38;;
70342;SDS011;57767;42.068;24.752;2023-02-03T05:29:19;8.93;;;4.10;;
70342;SDS011;57767;42.068;24.752;2023-02-03T05:30:21;5.63;;;2.80;;
70342;SDS011;57767;42.068;24.752;2023-02-03T05:31:23;4.65;;;2.92;;
70342;SDS011;57767;42.068;24.752;2023-02-03T05:32:24;6.25;;;3.13;;
70342;SDS011;57767;42.068;24.752;2023-02-03T05:33:27;3.47;;;2.65;;
70342;SDS011;57767;42.068;24.752;2023-02-03T05:34:30;3.35;;;1.98;;
70342;SDS011;57767;42.068;24.752;2023-02-03T05:35:31;2.85;;;1.55;;
70342;SDS011;57767;42.068;24.752;2023-02-03T05:36:33;2.75;;;1.88;;
70342;SDS011;57767;42.068;24.752;2023-02-03T05:37:35;2.85;;;1.90;;
70342;SDS011;57767;42.068;24.752;2023-02-03T05:38:36;1.95;;;1.70;;
70342;SDS011;57767;42.068;24.752;2023-02-03T05:39:38;2.40;;;1.73;;
70342;SDS011;57767;42.068;24.752;2023-02-03T05:40:40;3.47;;;1.40;;
70342;SDS011;57767;42.068;24.752;2023-02-03T05:42:00;0.98;;;0.88;;
70342;SDS011;57767;42.068;24.752;2023-02-03T05:43:03;1.38;;;1.17;;
70342;SDS011;57767;42.068;24.752;2023-02-03T05:44:05;1.60;;;1.50;;
70342;SDS011;57767;42.068;24.752;2023-02-03T05:45:06;1.45;;;1.30;;
70342;SDS011;57767;42.068;24.752;2023-02-03T05:46:08;1.60;;;1.50;;
70342;SDS011;57767;42.068;24.752;2023-02-03T05:47:10;1.58;;;1.48;;
70342;SDS011;57767;42.068;24.752;2023-02-03T05:48:12;4.30;;;1.40;;
70342;SDS011;57767;42.068;24.752;2023-02-03T05:49:13;2.00;;;1.40;;
70342;SDS011;57767;42.068;24.752;2023-02-03T05:50:15;1.50;;;1.40;;
70342;SDS011;57767;42.068;24.752;2023-02-03T05:51:17;1.50;;;1.40;;
70342;SDS011;57767;42.068;24.752;2023-02-03T05:52:18;2.75;;;1.50;;
70342;SDS011;57767;42.068;24.752;2023-02-03T05:53:21;2.22;;;1.70;;
70342;SDS011;57767;42.068;24.752;2023-02-03T05:54:23;4.80;;;1.70;;
70342;SDS011;57767;42.068;24.752;2023-02-03T05:55:25;6.88;;;1.73;;
70342;SDS011;57767;42.068;24.752;2023-02-03T05:56:28;2.67;;;1.55;;
70342;SDS011;57767;42.068;24.752;2023-02-03T05:57:30;2.08;;;1.35;;
70342;SDS011;57767;42.068;24.752;2023-02-03T05:58:32;3.25;;;1.83;;
70342;SDS011;57767;42.068;24.752;2023-02-03T05:59:34;2.65;;;1.90;;
70342;SDS011;57767;42.068;24.752;2023-02-03T06:00:35;8.27;;;2.17;;
70342;SDS011;57767;42.068;24.752;2023-02-03T06:01:37;2.88;;;1.80;;
70342;SDS011;57767;42.068;24.752;2023-02-03T06:02:39;5.05;;;2.30;;
70342;SDS011;57767;42.068;24.752;2023-02-03T06:03:41;1.80;;;1.45;;
70342;SDS011;57767;42.068;24.752;2023-02-03T06:04:46;1.80;;;1.60;;
70342;SDS011;57767;42.068;24.752;2023-02-03T06:05:47;1.38;;;1.23;;
70342;SDS011;57767;42.068;24.752;2023-02-03T06:06:49;1.80;;;1.58;;
70342;SDS011;57767;42.068;24.752;2023-02-03T06:07:51;2.10;;;1.60;;
70342;SDS011;57767;42.068;24.752;2023-02-03T06:08:53;2.80;;;2.03;;
70342;SDS011;57767;42.068;24.752;2023-02-03T06:09:57;1.52;;;1.35;;
70342;SDS011;57767;42.068;24.752;2023-02-03T06:10:58;2.95;;;1.80;;
70342;SDS011;57767;42.068;24.752;2023-02-03T06:12:00;3.85;;;1.52;;
70342;SDS011;57767;42.068;24.752;2023-02-03T06:13:09;2.22;;;1.65;;
70342;SDS011;57767;42.068;24.752;2023-02-03T06:14:12;2.75;;;1.75;;
70342;SDS011;57767;42.068;24.752;2023-02-03T06:15:13;3.08;;;2.13;;
70342;SDS011;57767;42.068;24.752;2023-02-03T06:16:16;5.50;;;2.10;;
70342;SDS011;57767;42.068;24.752;2023-02-03T06:17:17;2.80;;;2.28;;
70342;SDS011;57767;42.068;24.752;2023-02-03T06:18:19;2.45;;;2.25;;
70342;SDS011;57767;42.068;24.752;2023-02-03T06:19:21;2.92;;;1.77;;
70342;SDS011;57767;42.068;24.752;2023-02-03T06:20:23;2.75;;;1.70;;
70342;SDS011;57767;42.068;24.752;2023-02-03T06:21:24;3.63;;;1.75;;
70342;SDS011;57767;42.068;24.752;2023-02-03T06:22:26;3.53;;;1.60;;
70342;SDS011;57767;42.068;24.752;2023-02-03T06:23:28;3.55;;;1.60;;
70342;SDS011;57767;42.068;24.752;2023-02-03T06:24:30;1.88;;;1.58;;
70342;SDS011;57767;42.068;24.752;2023-02-03T06:25:31;3.85;;;1.98;;
70342;SDS011;57767;42.068;24.752;2023-02-03T06:26:33;5.20;;;2.17;;
70342;SDS011;57767;42.068;24.752;2023-02-03T06:27:35;3.35;;;1.73;;
70342;SDS011;57767;42.068;24.752;2023-02-03T06:28:37;2.63;;;1.77;;
70342;SDS011;57767;42.068;24.752;2023-02-03T06:29:38;2.78;;;1.55;;
70342;SDS011;57767;42.068;24.752;2023-02-03T06:30:41;3.28;;;1.80;;
70342;SDS011;57767;42.068;24.752;2023-02-03T06:31:43;3.70;;;1.73;;
70342;SDS011;57767;42.068;24.752;2023-02-03T06:32:46;2.25;;;1.70;;
70342;SDS011;57767;42.068;24.752;2023-02-03T06:33:48;2.13;;;1.67;;
70342;SDS011;57767;42.068;24.752;2023-02-03T06:34:50;5.50;;;2.22;;
70342;SDS011;57767;42.068;24.752;2023-02-03T06:35:52;4.43;;;2.50;;
70342;SDS011;57767;42.068;24.752;2023-02-03T06:36:54;2.97;;;2.13;;
70342;SDS011;57767;42.068;24.752;2023-02-03T06:37:56;2.00;;;1.58;;
70342;SDS011;57767;42.068;24.752;2023-02-03T06:38:57;3.25;;;1.55;;
70342;SDS011;57767;42.068;24.752;2023-02-03T06:39:59;2.58;;;1.40;;
70342;SDS011;57767;42.068;24.752;2023-02-03T06:41:01;2.85;;;2.00;;
70342;SDS011;57767;42.068;24.752;2023-02-03T06:42:03;2.08;;;1.63;;
70342;SDS011;57767;42.068;24.752;2023-02-03T06:43:04;2.50;;;1.60;;
70342;SDS011;57767;42.068;24.752;2023-02-03T06:44:06;3.28;;;2.13;;
70342;SDS011;57767;42.068;24.752;2023-02-03T06:45:08;2.35;;;1.90;;
70342;SDS011;57767;42.068;24.752;2023-02-03T06:46:10;1.60;;;1.30;;
70342;SDS011;57767;42.068;24.752;2023-02-03T06:47:12;2.55;;;1.77;;
70342;SDS011;57767;42.068;24.752;2023-02-03T06:48:14;2.53;;;1.73;;